Abnaki, Vermont
Current Conditions -  °F | °C
As of 8:55 AM on Friday 24 Oct 2014 (Local Time) from KFSO Reporting Station
Light Rain Light Rain  
Wind Chill:   Ceiling: 1500
Heat Index:   Visibility: 10mi
Dew Point:   Wind: 7mph
Humidity: 91%   Direction: 350°N
Pressure: 29.87"   Gusts: NA
Location:  44.841°N, 73.2779°W
Report Text: KFSO 241255Z AUTO 35006KT 10SM -RA OVC015 05/04 A2987 RMK AO2 T00530040
Loading
Personal Weather Stations






























Interactive Weather Map
Tropical Storm Tracking
New forecast layout! Learn more

10-Day Weather Forecast

Advertisements
Track Severe Weather on mobile